sensor_id;sensor_type;location;lat;lon;timestamp;P1;durP1;ratioP1;P2;durP2;ratioP2
57593;SDS011;43423;46.510;6.686;2023-07-20T00:00:25;7.00;;;2.70;;
57593;SDS011;43423;46.510;6.686;2023-07-20T00:03:13;5.05;;;2.50;;
57593;SDS011;43423;46.510;6.686;2023-07-20T00:05:45;3.95;;;2.40;;
57593;SDS011;43423;46.510;6.686;2023-07-20T00:08:11;6.25;;;3.25;;
57593;SDS011;43423;46.510;6.686;2023-07-20T00:10:36;5.00;;;2.20;;
57593;SDS011;43423;46.510;6.686;2023-07-20T00:13:02;8.63;;;2.35;;
57593;SDS011;43423;46.510;6.686;2023-07-20T00:15:27;5.22;;;3.10;;
57593;SDS011;43423;46.510;6.686;2023-07-20T00:17:53;4.97;;;2.58;;
57593;SDS011;43423;46.510;6.686;2023-07-20T00:20:18;4.00;;;2.30;;
57593;SDS011;43423;46.510;6.686;2023-07-20T00:22:44;6.32;;;2.38;;
57593;SDS011;43423;46.510;6.686;2023-07-20T00:25:10;8.82;;;2.80;;
57593;SDS011;43423;46.510;6.686;2023-07-20T00:27:37;5.10;;;2.80;;
57593;SDS011;43423;46.510;6.686;2023-07-20T00:30:03;6.38;;;2.40;;
57593;SDS011;43423;46.510;6.686;2023-07-20T00:32:29;4.65;;;2.15;;
57593;SDS011;43423;46.510;6.686;2023-07-20T00:34:55;5.03;;;2.65;;
57593;SDS011;43423;46.510;6.686;2023-07-20T00:37:20;5.03;;;2.78;;
57593;SDS011;43423;46.510;6.686;2023-07-20T00:39:46;4.03;;;2.80;;
57593;SDS011;43423;46.510;6.686;2023-07-20T00:42:11;5.50;;;2.60;;
57593;SDS011;43423;46.510;6.686;2023-07-20T00:44:37;6.90;;;2.75;;
57593;SDS011;43423;46.510;6.686;2023-07-20T00:47:02;6.07;;;2.72;;
57593;SDS011;43423;46.510;6.686;2023-07-20T00:49:28;4.55;;;2.22;;
57593;SDS011;43423;46.510;6.686;2023-07-20T00:51:54;3.97;;;2.50;;
57593;SDS011;43423;46.510;6.686;2023-07-20T00:54:20;5.93;;;2.58;;
57593;SDS011;43423;46.510;6.686;2023-07-20T00:56:45;4.35;;;2.53;;
57593;SDS011;43423;46.510;6.686;2023-07-20T00:59:12;5.32;;;2.60;;
57593;SDS011;43423;46.510;6.686;2023-07-20T01:01:38;2.78;;;2.08;;
57593;SDS011;43423;46.510;6.686;2023-07-20T01:04:04;9.05;;;2.72;;
57593;SDS011;43423;46.510;6.686;2023-07-20T01:09:08;5.03;;;2.60;;
57593;SDS011;43423;46.510;6.686;2023-07-20T01:11:43;4.05;;;1.80;;
57593;SDS011;43423;46.510;6.686;2023-07-20T01:14:23;5.75;;;2.55;;
57593;SDS011;43423;46.510;6.686;2023-07-20T01:16:50;8.43;;;2.75;;
57593;SDS011;43423;46.510;6.686;2023-07-20T01:19:17;4.28;;;2.40;;
57593;SDS011;43423;46.510;6.686;2023-07-20T01:22:02;7.18;;;2.42;;
57593;SDS011;43423;46.510;6.686;2023-07-20T01:33:26;4.95;;;2.42;;
57593;SDS011;43423;46.510;6.686;2023-07-20T01:35:57;8.45;;;2.78;;
57593;SDS011;43423;46.510;6.686;2023-07-20T01:38:24;4.93;;;2.40;;
57593;SDS011;43423;46.510;6.686;2023-07-20T01:40:51;3.75;;;1.90;;
57593;SDS011;43423;46.510;6.686;2023-07-20T01:43:17;3.60;;;2.17;;
57593;SDS011;43423;46.510;6.686;2023-07-20T01:45:43;5.40;;;2.30;;
57593;SDS011;43423;46.510;6.686;2023-07-20T01:48:09;4.65;;;2.15;;
57593;SDS011;43423;46.510;6.686;2023-07-20T01:50:35;5.88;;;2.05;;
57593;SDS011;43423;46.510;6.686;2023-07-20T01:53:00;3.80;;;2.20;;
57593;SDS011;43423;46.510;6.686;2023-07-20T01:55:26;5.78;;;2.30;;
57593;SDS011;43423;46.510;6.686;2023-07-20T01:57:52;3.97;;;2.13;;
57593;SDS011;43423;46.510;6.686;2023-07-20T02:00:18;2.65;;;1.85;;
57593;SDS011;43423;46.510;6.686;2023-07-20T02:02:46;3.65;;;1.90;;
57593;SDS011;43423;46.510;6.686;2023-07-20T02:05:12;2.33;;;1.98;;
57593;SDS011;43423;46.510;6.686;2023-07-20T02:07:37;2.83;;;1.70;;
57593;SDS011;43423;46.510;6.686;2023-07-20T02:10:03;4.07;;;2.20;;
57593;SDS011;43423;46.510;6.686;2023-07-20T02:12:29;3.30;;;2.08;;
57593;SDS011;43423;46.510;6.686;2023-07-20T02:14:55;5.63;;;2.15;;
57593;SDS011;43423;46.510;6.686;2023-07-20T02:17:20;3.90;;;1.88;;
57593;SDS011;43423;46.510;6.686;2023-07-20T02:19:46;2.95;;;1.90;;
57593;SDS011;43423;46.510;6.686;2023-07-20T02:22:14;2.97;;;1.67;;
57593;SDS011;43423;46.510;6.686;2023-07-20T02:24:40;3.13;;;1.70;;
57593;SDS011;43423;46.510;6.686;2023-07-20T02:27:06;3.05;;;1.67;;
57593;SDS011;43423;46.510;6.686;2023-07-20T02:29:32;3.78;;;1.83;;
57593;SDS011;43423;46.510;6.686;2023-07-20T02:31:59;5.95;;;1.83;;
57593;SDS011;43423;46.510;6.686;2023-07-20T02:34:24;3.38;;;1.65;;
57593;SDS011;43423;46.510;6.686;2023-07-20T02:36:50;5.60;;;1.60;;
57593;SDS011;43423;46.510;6.686;2023-07-20T02:39:15;3.05;;;1.70;;
57593;SDS011;43423;46.510;6.686;2023-07-20T02:41:41;6.03;;;1.70;;
57593;SDS011;43423;46.510;6.686;2023-07-20T02:44:07;2.83;;;1.88;;
57593;SDS011;43423;46.510;6.686;2023-07-20T02:46:32;5.15;;;1.90;;
57593;SDS011;43423;46.510;6.686;2023-07-20T02:48:58;4.22;;;2.00;;
57593;SDS011;43423;46.510;6.686;2023-07-20T02:51:23;3.42;;;1.95;;
57593;SDS011;43423;46.510;6.686;2023-07-20T02:53:49;3.90;;;1.80;;
57593;SDS011;43423;46.510;6.686;2023-07-20T02:56:14;4.65;;;2.13;;
57593;SDS011;43423;46.510;6.686;2023-07-20T02:58:41;3.03;;;1.60;;
57593;SDS011;43423;46.510;6.686;2023-07-20T03:01:11;4.63;;;1.92;;
57593;SDS011;43423;46.510;6.686;2023-07-20T03:03:37;2.60;;;1.55;;
57593;SDS011;43423;46.510;6.686;2023-07-20T03:06:03;3.22;;;1.90;;
57593;SDS011;43423;46.510;6.686;2023-07-20T03:08:34;5.35;;;2.17;;
57593;SDS011;43423;46.510;6.686;2023-07-20T03:11:00;3.22;;;1.80;;
57593;SDS011;43423;46.510;6.686;2023-07-20T03:13:26;4.10;;;2.00;;
57593;SDS011;43423;46.510;6.686;2023-07-20T03:15:52;2.53;;;1.70;;
57593;SDS011;43423;46.510;6.686;2023-07-20T03:18:18;4.90;;;1.70;;
57593;SDS011;43423;46.510;6.686;2023-07-20T03:20:43;2.20;;;1.67;;
57593;SDS011;43423;46.510;6.686;2023-07-20T03:23:10;2.72;;;1.52;;
57593;SDS011;43423;46.510;6.686;2023-07-20T03:25:35;4.30;;;1.70;;
57593;SDS011;43423;46.510;6.686;2023-07-20T03:28:03;5.60;;;2.17;;
57593;SDS011;43423;46.510;6.686;2023-07-20T03:30:28;4.90;;;1.80;;
57593;SDS011;43423;46.510;6.686;2023-07-20T03:32:54;3.28;;;1.92;;
57593;SDS011;43423;46.510;6.686;2023-07-20T03:35:19;4.97;;;2.33;;
57593;SDS011;43423;46.510;6.686;2023-07-20T03:37:45;2.03;;;1.40;;
57593;SDS011;43423;46.510;6.686;2023-07-20T03:40:10;3.75;;;1.95;;
57593;SDS011;43423;46.510;6.686;2023-07-20T03:42:36;4.03;;;2.08;;
57593;SDS011;43423;46.510;6.686;2023-07-20T03:45:04;3.67;;;1.90;;
57593;SDS011;43423;46.510;6.686;2023-07-20T03:47:31;5.63;;;1.92;;
57593;SDS011;43423;46.510;6.686;2023-07-20T03:49:57;7.25;;;2.20;;
57593;SDS011;43423;46.510;6.686;2023-07-20T03:52:23;4.25;;;2.22;;
57593;SDS011;43423;46.510;6.686;2023-07-20T03:54:49;4.35;;;2.15;;
57593;SDS011;43423;46.510;6.686;2023-07-20T03:57:16;4.65;;;1.80;;
57593;SDS011;43423;46.510;6.686;2023-07-20T03:59:44;3.42;;;1.77;;
57593;SDS011;43423;46.510;6.686;2023-07-20T04:02:10;4.22;;;2.00;;
57593;SDS011;43423;46.510;6.686;2023-07-20T04:04:36;3.95;;;1.92;;
57593;SDS011;43423;46.510;6.686;2023-07-20T04:07:01;3.17;;;1.90;;
57593;SDS011;43423;46.510;6.686;2023-07-20T04:09:27;3.47;;;2.20;;
57593;SDS011;43423;46.510;6.686;2023-07-20T04:11:52;4.50;;;1.90;;
57593;SDS011;43423;46.510;6.686;2023-07-20T04:14:18;5.15;;;2.05;;
57593;SDS011;43423;46.510;6.686;2023-07-20T04:16:45;6.72;;;1.73;;
57593;SDS011;43423;46.510;6.686;2023-07-20T04:19:11;4.05;;;1.80;;
57593;SDS011;43423;46.510;6.686;2023-07-20T04:21:40;3.13;;;1.85;;
57593;SDS011;43423;46.510;6.686;2023-07-20T04:24:06;3.70;;;1.90;;
57593;SDS011;43423;46.510;6.686;2023-07-20T04:26:32;2.97;;;1.60;;
57593;SDS011;43423;46.510;6.686;2023-07-20T04:28:58;5.85;;;1.98;;
57593;SDS011;43423;46.510;6.686;2023-07-20T04:31:24;5.90;;;1.70;;
57593;SDS011;43423;46.510;6.686;2023-07-20T04:33:50;3.88;;;1.92;;
57593;SDS011;43423;46.510;6.686;2023-07-20T04:36:16;5.53;;;1.55;;
57593;SDS011;43423;46.510;6.686;2023-07-20T04:38:47;3.00;;;1.80;;
57593;SDS011;43423;46.510;6.686;2023-07-20T04:41:13;4.75;;;2.20;;
57593;SDS011;43423;46.510;6.686;2023-07-20T04:43:43;10.38;;;2.03;;
57593;SDS011;43423;46.510;6.686;2023-07-20T04:46:10;4.53;;;1.80;;
57593;SDS011;43423;46.510;6.686;2023-07-20T04:48:35;5.38;;;2.00;;
57593;SDS011;43423;46.510;6.686;2023-07-20T04:51:02;3.30;;;1.88;;
57593;SDS011;43423;46.510;6.686;2023-07-20T04:53:28;2.42;;;1.65;;
57593;SDS011;43423;46.510;6.686;2023-07-20T04:55:53;6.05;;;2.08;;
57593;SDS011;43423;46.510;6.686;2023-07-20T04:58:20;3.10;;;1.70;;
57593;SDS011;43423;46.510;6.686;2023-07-20T05:00:46;4.97;;;2.10;;
57593;SDS011;43423;46.510;6.686;2023-07-20T05:03:13;5.55;;;2.40;;
57593;SDS011;43423;46.510;6.686;2023-07-20T05:05:38;4.50;;;1.98;;
57593;SDS011;43423;46.510;6.686;2023-07-20T05:08:04;7.30;;;2.38;;
57593;SDS011;43423;46.510;6.686;2023-07-20T05:10:30;6.88;;;2.55;;
57593;SDS011;43423;46.510;6.686;2023-07-20T05:12:56;4.72;;;2.25;;
57593;SDS011;43423;46.510;6.686;2023-07-20T05:15:21;5.10;;;2.00;;
57593;SDS011;43423;46.510;6.686;2023-07-20T05:17:47;4.32;;;2.30;;
57593;SDS011;43423;46.510;6.686;2023-07-20T05:20:14;4.30;;;2.10;;
57593;SDS011;43423;46.510;6.686;2023-07-20T05:22:39;8.07;;;2.90;;
57593;SDS011;43423;46.510;6.686;2023-07-20T05:25:06;7.82;;;2.42;;
57593;SDS011;43423;46.510;6.686;2023-07-20T05:27:33;6.40;;;2.10;;
57593;SDS011;43423;46.510;6.686;2023-07-20T05:30:00;4.45;;;2.35;;
57593;SDS011;43423;46.510;6.686;2023-07-20T05:32:26;4.60;;;2.53;;
57593;SDS011;43423;46.510;6.686;2023-07-20T05:34:52;3.97;;;2.33;;
57593;SDS011;43423;46.510;6.686;2023-07-20T05:37:19;6.22;;;2.70;;
57593;SDS011;43423;46.510;6.686;2023-07-20T05:39:45;6.25;;;2.83;;
57593;SDS011;43423;46.510;6.686;2023-07-20T05:42:10;6.90;;;2.78;;
57593;SDS011;43423;46.510;6.686;2023-07-20T05:44:36;9.48;;;2.55;;
57593;SDS011;43423;46.510;6.686;2023-07-20T05:47:01;7.78;;;2.88;;
57593;SDS011;43423;46.510;6.686;2023-07-20T05:49:28;6.30;;;2.78;;
57593;SDS011;43423;46.510;6.686;2023-07-20T05:51:54;3.95;;;2.78;;
57593;SDS011;43423;46.510;6.686;2023-07-20T05:54:21;4.28;;;2.70;;
57593;SDS011;43423;46.510;6.686;2023-07-20T05:56:46;4.78;;;2.35;;
57593;SDS011;43423;46.510;6.686;2023-07-20T05:59:12;6.60;;;2.67;;
57593;SDS011;43423;46.510;6.686;2023-07-20T06:01:38;4.18;;;2.72;;
57593;SDS011;43423;46.510;6.686;2023-07-20T06:04:04;6.15;;;2.80;;
57593;SDS011;43423;46.510;6.686;2023-07-20T06:06:29;6.00;;;2.92;;
57593;SDS011;43423;46.510;6.686;2023-07-20T06:08:55;6.28;;;2.78;;
57593;SDS011;43423;46.510;6.686;2023-07-20T06:11:20;6.32;;;2.70;;
57593;SDS011;43423;46.510;6.686;2023-07-20T06:13:46;6.05;;;2.63;;
57593;SDS011;43423;46.510;6.686;2023-07-20T06:16:11;8.00;;;3.17;;
57593;SDS011;43423;46.510;6.686;2023-07-20T06:18:37;5.53;;;2.90;;
57593;SDS011;43423;46.510;6.686;2023-07-20T06:21:03;8.93;;;2.95;;
57593;SDS011;43423;46.510;6.686;2023-07-20T06:23:29;7.72;;;3.08;;
57593;SDS011;43423;46.510;6.686;2023-07-20T06:25:54;4.30;;;3.03;;
57593;SDS011;43423;46.510;6.686;2023-07-20T06:28:20;6.65;;;3.13;;
57593;SDS011;43423;46.510;6.686;2023-07-20T06:30:45;9.18;;;2.58;;
57593;SDS011;43423;46.510;6.686;2023-07-20T06:33:11;7.82;;;2.95;;
57593;SDS011;43423;46.510;6.686;2023-07-20T06:35:37;6.32;;;2.70;;
57593;SDS011;43423;46.510;6.686;2023-07-20T06:38:03;7.60;;;3.03;;
57593;SDS011;43423;46.510;6.686;2023-07-20T06:40:29;5.00;;;2.95;;
57593;SDS011;43423;46.510;6.686;2023-07-20T06:43:01;7.38;;;3.08;;
57593;SDS011;43423;46.510;6.686;2023-07-20T06:45:27;5.93;;;3.22;;
57593;SDS011;43423;46.510;6.686;2023-07-20T06:47:53;6.35;;;3.72;;
57593;SDS011;43423;46.510;6.686;2023-07-20T06:50:18;7.95;;;2.97;;
57593;SDS011;43423;46.510;6.686;2023-07-20T06:52:45;7.80;;;3.75;;
57593;SDS011;43423;46.510;6.686;2023-07-20T06:55:12;5.40;;;2.90;;
57593;SDS011;43423;46.510;6.686;2023-07-20T06:57:38;15.13;;;4.38;;
57593;SDS011;43423;46.510;6.686;2023-07-20T07:00:04;7.70;;;4.22;;
57593;SDS011;43423;46.510;6.686;2023-07-20T07:02:32;6.90;;;3.30;;
57593;SDS011;43423;46.510;6.686;2023-07-20T07:04:57;8.23;;;3.00;;
57593;SDS011;43423;46.510;6.686;2023-07-20T07:07:23;9.32;;;3.28;;
57593;SDS011;43423;46.510;6.686;2023-07-20T07:09:48;5.55;;;3.13;;
57593;SDS011;43423;46.510;6.686;2023-07-20T07:12:14;7.32;;;3.55;;
57593;SDS011;43423;46.510;6.686;2023-07-20T07:14:40;7.78;;;3.42;;
57593;SDS011;43423;46.510;6.686;2023-07-20T07:17:08;6.53;;;3.25;;
57593;SDS011;43423;46.510;6.686;2023-07-20T07:19:39;5.55;;;3.45;;
57593;SDS011;43423;46.510;6.686;2023-07-20T07:22:06;7.25;;;3.40;;
57593;SDS011;43423;46.510;6.686;2023-07-20T07:24:36;7.10;;;3.53;;
57593;SDS011;43423;46.510;6.686;2023-07-20T07:27:02;9.52;;;3.45;;
57593;SDS011;43423;46.510;6.686;2023-07-20T07:29:31;10.52;;;3.75;;
57593;SDS011;43423;46.510;6.686;2023-07-20T07:31:56;8.05;;;3.80;;
57593;SDS011;43423;46.510;6.686;2023-07-20T07:34:23;10.65;;;3.58;;
57593;SDS011;43423;46.510;6.686;2023-07-20T07:36:49;7.20;;;3.42;;
57593;SDS011;43423;46.510;6.686;2023-07-20T07:39:15;7.90;;;3.95;;
57593;SDS011;43423;46.510;6.686;2023-07-20T07:41:40;9.65;;;4.25;;
57593;SDS011;43423;46.510;6.686;2023-07-20T07:44:06;10.80;;;4.05;;
57593;SDS011;43423;46.510;6.686;2023-07-20T07:46:31;10.65;;;4.10;;
57593;SDS011;43423;46.510;6.686;2023-07-20T07:48:57;5.95;;;3.08;;
57593;SDS011;43423;46.510;6.686;2023-07-20T07:51:23;11.77;;;3.92;;
57593;SDS011;43423;46.510;6.686;2023-07-20T07:53:49;7.20;;;3.65;;
57593;SDS011;43423;46.510;6.686;2023-07-20T07:56:15;12.00;;;4.60;;
57593;SDS011;43423;46.510;6.686;2023-07-20T07:58:42;10.45;;;4.60;;
57593;SDS011;43423;46.510;6.686;2023-07-20T08:01:11;9.88;;;3.75;;
57593;SDS011;43423;46.510;6.686;2023-07-20T08:03:36;9.00;;;4.18;;
57593;SDS011;43423;46.510;6.686;2023-07-20T08:06:02;9.02;;;4.15;;
57593;SDS011;43423;46.510;6.686;2023-07-20T08:08:32;7.43;;;4.18;;
57593;SDS011;43423;46.510;6.686;2023-07-20T08:11:01;14.85;;;4.80;;
57593;SDS011;43423;46.510;6.686;2023-07-20T08:13:26;7.70;;;4.38;;
57593;SDS011;43423;46.510;6.686;2023-07-20T08:15:55;14.82;;;4.38;;
57593;SDS011;43423;46.510;6.686;2023-07-20T08:18:24;8.25;;;4.35;;
57593;SDS011;43423;46.510;6.686;2023-07-20T08:20:50;12.82;;;4.22;;
57593;SDS011;43423;46.510;6.686;2023-07-20T08:23:16;10.80;;;4.65;;
57593;SDS011;43423;46.510;6.686;2023-07-20T08:25:43;11.60;;;4.53;;
57593;SDS011;43423;46.510;6.686;2023-07-20T08:28:10;15.55;;;5.07;;
57593;SDS011;43423;46.510;6.686;2023-07-20T08:30:41;10.00;;;4.20;;
57593;SDS011;43423;46.510;6.686;2023-07-20T08:33:09;11.05;;;4.43;;
57593;SDS011;43423;46.510;6.686;2023-07-20T08:35:48;19.55;;;4.65;;
57593;SDS011;43423;46.510;6.686;2023-07-20T08:38:14;12.00;;;4.20;;
57593;SDS011;43423;46.510;6.686;2023-07-20T08:40:46;9.98;;;4.80;;
57593;SDS011;43423;46.510;6.686;2023-07-20T08:43:12;13.00;;;4.20;;
57593;SDS011;43423;46.510;6.686;2023-07-20T08:45:39;11.77;;;5.18;;
57593;SDS011;43423;46.510;6.686;2023-07-20T08:48:06;11.00;;;4.60;;
57593;SDS011;43423;46.510;6.686;2023-07-20T08:50:33;11.23;;;4.82;;
57593;SDS011;43423;46.510;6.686;2023-07-20T08:53:00;14.70;;;4.90;;
57593;SDS011;43423;46.510;6.686;2023-07-20T08:55:26;7.40;;;4.28;;
57593;SDS011;43423;46.510;6.686;2023-07-20T08:57:55;9.35;;;3.78;;
57593;SDS011;43423;46.510;6.686;2023-07-20T09:00:22;10.85;;;4.40;;
57593;SDS011;43423;46.510;6.686;2023-07-20T09:02:49;10.15;;;4.53;;
57593;SDS011;43423;46.510;6.686;2023-07-20T09:05:17;9.88;;;4.47;;
57593;SDS011;43423;46.510;6.686;2023-07-20T09:07:43;10.52;;;4.47;;
57593;SDS011;43423;46.510;6.686;2023-07-20T09:10:08;11.38;;;5.00;;
57593;SDS011;43423;46.510;6.686;2023-07-20T09:12:36;10.30;;;4.50;;
57593;SDS011;43423;46.510;6.686;2023-07-20T09:15:03;9.27;;;3.92;;
57593;SDS011;43423;46.510;6.686;2023-07-20T09:17:30;5.78;;;3.40;;
57593;SDS011;43423;46.510;6.686;2023-07-20T09:19:55;9.20;;;3.78;;
57593;SDS011;43423;46.510;6.686;2023-07-20T09:22:21;10.07;;;4.45;;
57593;SDS011;43423;46.510;6.686;2023-07-20T09:24:46;9.73;;;4.00;;
57593;SDS011;43423;46.510;6.686;2023-07-20T09:27:12;9.98;;;4.25;;
57593;SDS011;43423;46.510;6.686;2023-07-20T09:29:48;13.85;;;4.13;;
57593;SDS011;43423;46.510;6.686;2023-07-20T09:32:17;9.57;;;4.80;;
57593;SDS011;43423;46.510;6.686;2023-07-20T09:34:45;10.38;;;4.43;;
57593;SDS011;43423;46.510;6.686;2023-07-20T09:37:10;10.15;;;4.40;;
57593;SDS011;43423;46.510;6.686;2023-07-20T09:39:42;10.27;;;4.72;;
57593;SDS011;43423;46.510;6.686;2023-07-20T09:42:10;10.55;;;4.63;;
57593;SDS011;43423;46.510;6.686;2023-07-20T09:44:37;10.68;;;4.38;;
57593;SDS011;43423;46.510;6.686;2023-07-20T09:47:04;10.32;;;4.20;;
57593;SDS011;43423;46.510;6.686;2023-07-20T09:49:29;10.82;;;4.38;;
57593;SDS011;43423;46.510;6.686;2023-07-20T09:51:55;15.77;;;4.07;;
57593;SDS011;43423;46.510;6.686;2023-07-20T09:54:24;12.45;;;4.38;;
57593;SDS011;43423;46.510;6.686;2023-07-20T09:56:52;10.80;;;4.55;;
57593;SDS011;43423;46.510;6.686;2023-07-20T09:59:18;7.85;;;3.97;;
57593;SDS011;43423;46.510;6.686;2023-07-20T10:01:44;9.48;;;4.25;;
57593;SDS011;43423;46.510;6.686;2023-07-20T10:04:11;11.98;;;4.53;;
57593;SDS011;43423;46.510;6.686;2023-07-20T10:06:39;11.13;;;4.53;;
57593;SDS011;43423;46.510;6.686;2023-07-20T10:09:07;14.50;;;4.87;;
57593;SDS011;43423;46.510;6.686;2023-07-20T10:11:35;8.90;;;4.90;;
57593;SDS011;43423;46.510;6.686;2023-07-20T10:14:04;7.45;;;3.85;;
57593;SDS011;43423;46.510;6.686;2023-07-20T10:16:36;11.80;;;4.38;;
57593;SDS011;43423;46.510;6.686;2023-07-20T10:21:56;10.38;;;4.10;;
57593;SDS011;43423;46.510;6.686;2023-07-20T10:24:28;8.18;;;3.42;;
57593;SDS011;43423;46.510;6.686;2023-07-20T10:26:56;7.32;;;3.67;;
57593;SDS011;43423;46.510;6.686;2023-07-20T10:29:23;8.57;;;3.42;;
57593;SDS011;43423;46.510;6.686;2023-07-20T10:31:50;8.00;;;3.60;;
57593;SDS011;43423;46.510;6.686;2023-07-20T10:34:16;9.52;;;3.70;;
57593;SDS011;43423;46.510;6.686;2023-07-20T10:36:46;10.85;;;4.45;;
57593;SDS011;43423;46.510;6.686;2023-07-20T10:39:27;9.60;;;4.65;;
57593;SDS011;43423;46.510;6.686;2023-07-20T10:42:09;17.77;;;4.10;;
57593;SDS011;43423;46.510;6.686;2023-07-20T10:44:38;11.02;;;3.80;;
57593;SDS011;43423;46.510;6.686;2023-07-20T10:47:09;8.95;;;4.10;;
57593;SDS011;43423;46.510;6.686;2023-07-20T10:49:57;11.70;;;4.05;;
57593;SDS011;43423;46.510;6.686;2023-07-20T10:52:23;6.22;;;3.83;;
57593;SDS011;43423;46.510;6.686;2023-07-20T10:54:49;12.30;;;4.68;;
57593;SDS011;43423;46.510;6.686;2023-07-20T10:57:22;9.40;;;4.10;;
57593;SDS011;43423;46.510;6.686;2023-07-20T10:59:49;7.10;;;4.13;;
57593;SDS011;43423;46.510;6.686;2023-07-20T11:02:17;11.85;;;4.35;;
57593;SDS011;43423;46.510;6.686;2023-07-20T11:04:46;11.93;;;4.40;;
57593;SDS011;43423;46.510;6.686;2023-07-20T11:07:16;12.05;;;4.13;;
57593;SDS011;43423;46.510;6.686;2023-07-20T11:09:42;10.85;;;4.30;;
57593;SDS011;43423;46.510;6.686;2023-07-20T11:12:09;9.75;;;4.38;;
57593;SDS011;43423;46.510;6.686;2023-07-20T11:14:34;11.85;;;4.53;;
57593;SDS011;43423;46.510;6.686;2023-07-20T11:17:12;8.52;;;3.85;;
57593;SDS011;43423;46.510;6.686;2023-07-20T11:19:39;9.05;;;3.72;;
57593;SDS011;43423;46.510;6.686;2023-07-20T11:22:08;9.18;;;4.00;;
57593;SDS011;43423;46.510;6.686;2023-07-20T11:24:37;12.23;;;3.67;;
57593;SDS011;43423;46.510;6.686;2023-07-20T11:27:04;6.93;;;4.03;;
57593;SDS011;43423;46.510;6.686;2023-07-20T11:29:30;10.45;;;4.63;;
57593;SDS011;43423;46.510;6.686;2023-07-20T11:31:56;8.57;;;3.92;;
57593;SDS011;43423;46.510;6.686;2023-07-20T11:34:22;5.63;;;3.83;;
57593;SDS011;43423;46.510;6.686;2023-07-20T11:36:48;8.40;;;4.03;;
57593;SDS011;43423;46.510;6.686;2023-07-20T11:39:16;14.10;;;4.10;;
57593;SDS011;43423;46.510;6.686;2023-07-20T11:41:51;8.68;;;4.32;;
57593;SDS011;43423;46.510;6.686;2023-07-20T11:44:18;7.18;;;4.05;;
57593;SDS011;43423;46.510;6.686;2023-07-20T11:47:08;7.80;;;4.40;;
57593;SDS011;43423;46.510;6.686;2023-07-20T11:49:39;10.15;;;3.90;;
57593;SDS011;43423;46.510;6.686;2023-07-20T11:52:08;9.63;;;3.78;;
57593;SDS011;43423;46.510;6.686;2023-07-20T11:54:35;11.15;;;3.92;;
57593;SDS011;43423;46.510;6.686;2023-07-20T11:57:03;9.50;;;4.00;;
57593;SDS011;43423;46.510;6.686;2023-07-20T11:59:30;9.23;;;3.92;;
57593;SDS011;43423;46.510;6.686;2023-07-20T12:01:57;7.78;;;4.20;;
57593;SDS011;43423;46.510;6.686;2023-07-20T12:04:26;9.30;;;3.72;;
57593;SDS011;43423;46.510;6.686;2023-07-20T12:06:53;9.98;;;3.67;;
57593;SDS011;43423;46.510;6.686;2023-07-20T12:09:19;5.70;;;3.67;;
57593;SDS011;43423;46.510;6.686;2023-07-20T12:11:48;8.18;;;3.72;;
57593;SDS011;43423;46.510;6.686;2023-07-20T12:14:14;7.30;;;3.60;;
57593;SDS011;43423;46.510;6.686;2023-07-20T12:16:40;8.32;;;3.95;;
57593;SDS011;43423;46.510;6.686;2023-07-20T12:19:10;6.82;;;3.33;;
57593;SDS011;43423;46.510;6.686;2023-07-20T12:21:37;8.27;;;3.35;;
57593;SDS011;43423;46.510;6.686;2023-07-20T12:24:05;7.30;;;3.45;;
57593;SDS011;43423;46.510;6.686;2023-07-20T12:26:31;10.35;;;3.45;;
57593;SDS011;43423;46.510;6.686;2023-07-20T12:28:58;5.80;;;2.95;;
57593;SDS011;43423;46.510;6.686;2023-07-20T12:31:24;6.70;;;3.38;;
57593;SDS011;43423;46.510;6.686;2023-07-20T12:33:51;7.68;;;3.58;;
57593;SDS011;43423;46.510;6.686;2023-07-20T12:36:17;6.88;;;3.33;;
57593;SDS011;43423;46.510;6.686;2023-07-20T12:38:44;8.02;;;3.30;;
57593;SDS011;43423;46.510;6.686;2023-07-20T12:41:10;6.80;;;3.03;;
57593;SDS011;43423;46.510;6.686;2023-07-20T12:43:40;4.93;;;2.50;;
57593;SDS011;43423;46.510;6.686;2023-07-20T12:46:06;5.63;;;2.92;;
57593;SDS011;43423;46.510;6.686;2023-07-20T12:48:32;6.40;;;3.22;;
57593;SDS011;43423;46.510;6.686;2023-07-20T12:50:58;6.72;;;3.22;;
57593;SDS011;43423;46.510;6.686;2023-07-20T12:53:24;5.93;;;3.17;;
57593;SDS011;43423;46.510;6.686;2023-07-20T12:55:49;6.70;;;3.42;;
57593;SDS011;43423;46.510;6.686;2023-07-20T12:58:15;5.93;;;3.20;;
57593;SDS011;43423;46.510;6.686;2023-07-20T13:00:41;6.88;;;2.80;;
57593;SDS011;43423;46.510;6.686;2023-07-20T13:03:07;4.43;;;2.50;;
57593;SDS011;43423;46.510;6.686;2023-07-20T13:05:34;5.05;;;2.40;;
57593;SDS011;43423;46.510;6.686;2023-07-20T13:08:01;4.28;;;2.05;;
57593;SDS011;43423;46.510;6.686;2023-07-20T13:10:27;10.13;;;2.60;;
57593;SDS011;43423;46.510;6.686;2023-07-20T13:12:52;4.80;;;2.80;;
57593;SDS011;43423;46.510;6.686;2023-07-20T13:15:18;4.35;;;2.30;;
57593;SDS011;43423;46.510;6.686;2023-07-20T13:17:44;3.45;;;1.98;;
57593;SDS011;43423;46.510;6.686;2023-07-20T13:20:10;3.55;;;1.83;;
57593;SDS011;43423;46.510;6.686;2023-07-20T13:22:39;3.55;;;2.15;;
57593;SDS011;43423;46.510;6.686;2023-07-20T13:25:06;3.15;;;1.75;;
57593;SDS011;43423;46.510;6.686;2023-07-20T13:27:33;3.45;;;1.80;;
57593;SDS011;43423;46.510;6.686;2023-07-20T13:29:59;3.38;;;2.03;;
57593;SDS011;43423;46.510;6.686;2023-07-20T13:32:26;3.13;;;1.90;;
57593;SDS011;43423;46.510;6.686;2023-07-20T13:34:52;3.95;;;1.90;;
57593;SDS011;43423;46.510;6.686;2023-07-20T13:37:18;4.18;;;2.10;;
57593;SDS011;43423;46.510;6.686;2023-07-20T13:39:43;4.68;;;2.00;;
57593;SDS011;43423;46.510;6.686;2023-07-20T13:42:09;4.07;;;2.20;;
57593;SDS011;43423;46.510;6.686;2023-07-20T13:44:37;3.72;;;1.85;;
57593;SDS011;43423;46.510;6.686;2023-07-20T13:47:02;3.42;;;1.90;;
57593;SDS011;43423;46.510;6.686;2023-07-20T13:49:30;3.47;;;2.00;;
57593;SDS011;43423;46.510;6.686;2023-07-20T13:51:57;2.88;;;1.80;;
57593;SDS011;43423;46.510;6.686;2023-07-20T13:54:23;3.05;;;2.22;;
57593;SDS011;43423;46.510;6.686;2023-07-20T13:56:49;5.43;;;1.83;;
57593;SDS011;43423;46.510;6.686;2023-07-20T13:59:15;2.33;;;1.60;;
57593;SDS011;43423;46.510;6.686;2023-07-20T14:01:41;2.28;;;1.90;;
57593;SDS011;43423;46.510;6.686;2023-07-20T14:04:06;3.20;;;1.80;;
57593;SDS011;43423;46.510;6.686;2023-07-20T14:06:32;2.58;;;1.77;;
57593;SDS011;43423;46.510;6.686;2023-07-20T14:08:58;5.75;;;2.20;;
57593;SDS011;43423;46.510;6.686;2023-07-20T14:11:24;3.00;;;1.60;;
57593;SDS011;43423;46.510;6.686;2023-07-20T14:13:50;2.60;;;1.70;;
57593;SDS011;43423;46.510;6.686;2023-07-20T14:16:18;3.13;;;1.95;;
57593;SDS011;43423;46.510;6.686;2023-07-20T14:18:45;3.55;;;1.70;;
57593;SDS011;43423;46.510;6.686;2023-07-20T14:21:12;2.92;;;1.92;;
57593;SDS011;43423;46.510;6.686;2023-07-20T14:23:38;3.65;;;1.73;;
57593;SDS011;43423;46.510;6.686;2023-07-20T14:26:04;1.80;;;1.48;;
57593;SDS011;43423;46.510;6.686;2023-07-20T14:28:31;3.20;;;1.70;;
57593;SDS011;43423;46.510;6.686;2023-07-20T14:30:57;3.40;;;1.63;;
57593;SDS011;43423;46.510;6.686;2023-07-20T14:33:23;1.85;;;1.60;;
57593;SDS011;43423;46.510;6.686;2023-07-20T14:35:48;3.50;;;1.80;;
57593;SDS011;43423;46.510;6.686;2023-07-20T14:38:14;2.67;;;1.80;;
57593;SDS011;43423;46.510;6.686;2023-07-20T14:40:39;3.20;;;2.00;;
57593;SDS011;43423;46.510;6.686;2023-07-20T14:43:05;1.52;;;1.42;;
57593;SDS011;43423;46.510;6.686;2023-07-20T14:45:30;4.05;;;1.63;;
57593;SDS011;43423;46.510;6.686;2023-07-20T14:47:56;2.60;;;1.98;;
57593;SDS011;43423;46.510;6.686;2023-07-20T14:50:21;4.03;;;1.90;;
57593;SDS011;43423;46.510;6.686;2023-07-20T14:52:48;3.45;;;2.28;;
57593;SDS011;43423;46.510;6.686;2023-07-20T14:55:13;4.43;;;2.00;;
57593;SDS011;43423;46.510;6.686;2023-07-20T14:57:39;4.93;;;2.10;;